Elyria, Ohio
Current Conditions -  °F | °C
As of 11:53 AM on Thursday 18 Dec 2014 (Local Time) from KLPR Reporting Station
Overcast Overcast  
Wind Chill: 20°   Ceiling: 2100
Heat Index: 29°   Visibility: 10mi
Dew Point: 23°   Wind: 10mph
Humidity: 78%   Direction: 270°W
Pressure: 30.21"   Gusts: NA
Location:  41.37°N, 82.1°W
Report Text: KLPR 181653Z AUTO 27009KT 10SM OVC021 M02/M05 A3021 RMK AO2 SLP238 T10171050 TSNO
Loading
Personal Weather Stations






























Interactive Weather Map New forecast layout! Learn more

10-Day Weather Forecast

Advertisements
Track Severe Weather on mobile